sensor_id;sensor_type;location;lat;lon;timestamp;pressure;altitude;pressure_sealevel;temperature;humidity
62055;BME280;48653;51.742;-1.256;2024-01-15T00:06:10;100395.40;;;3.04;44.87
62055;BME280;48653;51.742;-1.256;2024-01-15T00:08:37;100394.02;;;3.24;45.06
62055;BME280;48653;51.742;-1.256;2024-01-15T00:11:01;100386.83;;;2.87;45.52
62055;BME280;48653;51.742;-1.256;2024-01-15T00:13:27;100385.47;;;3.18;45.44
62055;BME280;48653;51.742;-1.256;2024-01-15T00:15:52;100378.40;;;2.37;46.47
62055;BME280;48653;51.742;-1.256;2024-01-15T00:18:17;100380.67;;;2.82;45.92
62055;BME280;48653;51.742;-1.256;2024-01-15T00:20:43;100381.61;;;2.35;46.50
62055;BME280;48653;51.742;-1.256;2024-01-15T00:23:08;100379.90;;;2.13;46.77
62055;BME280;48653;51.742;-1.256;2024-01-15T00:25:33;100381.11;;;2.30;46.55
62055;BME280;48653;51.742;-1.256;2024-01-15T00:27:59;100383.93;;;2.34;46.94
62055;BME280;48653;51.742;-1.256;2024-01-15T00:30:24;100383.78;;;2.47;46.07
62055;BME280;48653;51.742;-1.256;2024-01-15T00:32:50;100377.27;;;2.93;46.23
62055;BME280;48653;51.742;-1.256;2024-01-15T00:35:14;100379.66;;;2.29;45.85
62055;BME280;48653;51.742;-1.256;2024-01-15T00:37:42;100376.08;;;2.61;45.49
62055;BME280;48653;51.742;-1.256;2024-01-15T00:40:06;100374.65;;;2.83;45.17
62055;BME280;48653;51.742;-1.256;2024-01-15T00:42:30;100373.39;;;3.30;44.75
62055;BME280;48653;51.742;-1.256;2024-01-15T00:44:55;100369.36;;;2.83;45.29
62055;BME280;48653;51.742;-1.256;2024-01-15T00:47:20;100375.45;;;2.97;44.95
62055;BME280;48653;51.742;-1.256;2024-01-15T00:52:10;100373.75;;;3.20;44.75
62055;BME280;48653;51.742;-1.256;2024-01-15T00:54:36;100372.77;;;3.48;45.00
62055;BME280;48653;51.742;-1.256;2024-01-15T00:57:01;100368.95;;;3.57;44.46
62055;BME280;48653;51.742;-1.256;2024-01-15T00:59:27;100370.49;;;3.23;45.57
62055;BME280;48653;51.742;-1.256;2024-01-15T01:01:52;100368.78;;;2.95;46.00
62055;BME280;48653;51.742;-1.256;2024-01-15T01:04:19;100364.59;;;3.05;45.52
62055;BME280;48653;51.742;-1.256;2024-01-15T01:06:43;100366.02;;;3.59;45.88
62055;BME280;48653;51.742;-1.256;2024-01-15T01:09:10;100367.47;;;2.95;46.14
62055;BME280;48653;51.742;-1.256;2024-01-15T01:11:33;100363.98;;;3.04;45.76
62055;BME280;48653;51.742;-1.256;2024-01-15T01:13:59;100358.89;;;2.64;47.01
62055;BME280;48653;51.742;-1.256;2024-01-15T01:16:23;100361.29;;;3.05;46.55
62055;BME280;48653;51.742;-1.256;2024-01-15T01:18:49;100357.37;;;2.64;46.61
62055;BME280;48653;51.742;-1.256;2024-01-15T01:21:14;100361.84;;;2.81;46.64
62055;BME280;48653;51.742;-1.256;2024-01-15T01:23:39;100356.88;;;3.46;46.27
62055;BME280;48653;51.742;-1.256;2024-01-15T01:26:04;100357.42;;;2.65;47.03
62055;BME280;48653;51.742;-1.256;2024-01-15T01:28:29;100352.76;;;3.39;45.81
62055;BME280;48653;51.742;-1.256;2024-01-15T01:30:54;100351.12;;;3.70;45.87
62055;BME280;48653;51.742;-1.256;2024-01-15T01:33:20;100350.36;;;2.82;46.87
62055;BME280;48653;51.742;-1.256;2024-01-15T01:35:45;100344.03;;;2.73;46.91
62055;BME280;48653;51.742;-1.256;2024-01-15T01:38:12;100343.10;;;3.00;46.82
62055;BME280;48653;51.742;-1.256;2024-01-15T01:40:36;100342.15;;;3.02;45.64
62055;BME280;48653;51.742;-1.256;2024-01-15T01:43:03;100338.10;;;3.39;45.18
62055;BME280;48653;51.742;-1.256;2024-01-15T01:45:27;100337.45;;;3.12;45.39
62055;BME280;48653;51.742;-1.256;2024-01-15T01:47:52;100339.64;;;3.04;45.79
62055;BME280;48653;51.742;-1.256;2024-01-15T01:50:18;100339.57;;;3.00;45.11
62055;BME280;48653;51.742;-1.256;2024-01-15T01:52:43;100343.31;;;2.30;46.41
62055;BME280;48653;51.742;-1.256;2024-01-15T01:55:10;100335.69;;;2.41;46.68
62055;BME280;48653;51.742;-1.256;2024-01-15T01:57:33;100336.02;;;2.22;46.34
62055;BME280;48653;51.742;-1.256;2024-01-15T01:59:59;100329.32;;;2.97;45.29
62055;BME280;48653;51.742;-1.256;2024-01-15T02:02:23;100330.75;;;2.55;45.94
62055;BME280;48653;51.742;-1.256;2024-01-15T02:04:48;100328.77;;;1.78;48.02
62055;BME280;48653;51.742;-1.256;2024-01-15T02:07:13;100329.63;;;2.57;46.26
62055;BME280;48653;51.742;-1.256;2024-01-15T02:09:38;100328.11;;;2.22;46.24
62055;BME280;48653;51.742;-1.256;2024-01-15T02:12:04;100334.31;;;2.72;45.87
62055;BME280;48653;51.742;-1.256;2024-01-15T02:14:28;100335.36;;;3.05;45.04
62055;BME280;48653;51.742;-1.256;2024-01-15T02:16:54;100336.97;;;2.86;45.50
62055;BME280;48653;51.742;-1.256;2024-01-15T02:19:19;100341.47;;;2.83;45.15
62055;BME280;48653;51.742;-1.256;2024-01-15T02:21:45;100338.43;;;2.20;46.17
62055;BME280;48653;51.742;-1.256;2024-01-15T02:24:10;100339.84;;;1.98;46.06
62055;BME280;48653;51.742;-1.256;2024-01-15T02:26:37;100337.16;;;2.11;45.21
62055;BME280;48653;51.742;-1.256;2024-01-15T02:29:00;100343.54;;;3.17;43.97
62055;BME280;48653;51.742;-1.256;2024-01-15T02:31:25;100344.27;;;2.74;44.13
62055;BME280;48653;51.742;-1.256;2024-01-15T02:33:50;100342.16;;;3.01;43.76
62055;BME280;48653;51.742;-1.256;2024-01-15T02:36:16;100344.74;;;2.69;44.31
62055;BME280;48653;51.742;-1.256;2024-01-15T02:38:42;100349.59;;;2.77;44.20
62055;BME280;48653;51.742;-1.256;2024-01-15T02:41:07;100349.61;;;2.82;43.42
62055;BME280;48653;51.742;-1.256;2024-01-15T02:43:31;100346.66;;;3.00;43.62
62055;BME280;48653;51.742;-1.256;2024-01-15T02:45:57;100352.36;;;2.82;43.85
62055;BME280;48653;51.742;-1.256;2024-01-15T02:48:21;100347.74;;;2.78;43.86
62055;BME280;48653;51.742;-1.256;2024-01-15T02:50:47;100345.63;;;2.61;44.23
62055;BME280;48653;51.742;-1.256;2024-01-15T02:53:11;100344.87;;;2.88;43.95
62055;BME280;48653;51.742;-1.256;2024-01-15T02:55:36;100342.91;;;3.03;43.52
62055;BME280;48653;51.742;-1.256;2024-01-15T02:58:02;100339.69;;;3.41;43.16
62055;BME280;48653;51.742;-1.256;2024-01-15T03:00:27;100343.24;;;3.12;43.74
62055;BME280;48653;51.742;-1.256;2024-01-15T03:02:52;100343.01;;;2.89;45.17
62055;BME280;48653;51.742;-1.256;2024-01-15T03:05:18;100341.76;;;2.71;45.24
62055;BME280;48653;51.742;-1.256;2024-01-15T03:07:43;100336.93;;;2.30;45.90
62055;BME280;48653;51.742;-1.256;2024-01-15T03:10:08;100335.35;;;2.11;45.88
62055;BME280;48653;51.742;-1.256;2024-01-15T03:12:33;100335.97;;;2.27;46.14
62055;BME280;48653;51.742;-1.256;2024-01-15T03:14:58;100338.90;;;2.20;46.06
62055;BME280;48653;51.742;-1.256;2024-01-15T03:17:23;100338.16;;;2.37;45.69
62055;BME280;48653;51.742;-1.256;2024-01-15T03:19:48;100339.77;;;2.17;46.12
62055;BME280;48653;51.742;-1.256;2024-01-15T03:22:13;100341.61;;;2.13;46.05
62055;BME280;48653;51.742;-1.256;2024-01-15T03:24:39;100347.32;;;2.79;45.10
62055;BME280;48653;51.742;-1.256;2024-01-15T03:27:04;100345.51;;;2.78;45.40
62055;BME280;48653;51.742;-1.256;2024-01-15T03:29:29;100341.03;;;2.64;45.70
62055;BME280;48653;51.742;-1.256;2024-01-15T03:31:54;100336.68;;;3.34;44.62
62055;BME280;48653;51.742;-1.256;2024-01-15T03:34:19;100339.10;;;2.68;45.07
62055;BME280;48653;51.742;-1.256;2024-01-15T03:36:45;100338.95;;;2.73;45.20
62055;BME280;48653;51.742;-1.256;2024-01-15T03:39:10;100337.90;;;2.70;45.05
62055;BME280;48653;51.742;-1.256;2024-01-15T03:41:35;100333.49;;;2.44;45.23
62055;BME280;48653;51.742;-1.256;2024-01-15T03:44:00;100333.54;;;2.46;45.31
62055;BME280;48653;51.742;-1.256;2024-01-15T03:46:25;100332.17;;;2.53;45.90
62055;BME280;48653;51.742;-1.256;2024-01-15T03:48:50;100327.07;;;2.46;45.85
62055;BME280;48653;51.742;-1.256;2024-01-15T03:51:16;100331.33;;;2.81;45.39
62055;BME280;48653;51.742;-1.256;2024-01-15T03:53:42;100327.53;;;2.56;46.41
62055;BME280;48653;51.742;-1.256;2024-01-15T03:56:06;100328.37;;;1.87;46.87
62055;BME280;48653;51.742;-1.256;2024-01-15T03:58:32;100326.49;;;2.22;46.64
62055;BME280;48653;51.742;-1.256;2024-01-15T04:01:02;100330.36;;;2.70;46.35
62055;BME280;48653;51.742;-1.256;2024-01-15T04:03:22;100327.94;;;2.14;46.28
62055;BME280;48653;51.742;-1.256;2024-01-15T04:05:47;100326.73;;;2.19;46.35
62055;BME280;48653;51.742;-1.256;2024-01-15T04:08:12;100327.98;;;1.74;47.32
62055;BME280;48653;51.742;-1.256;2024-01-15T04:10:37;100322.96;;;1.83;47.09
62055;BME280;48653;51.742;-1.256;2024-01-15T04:13:03;100323.02;;;1.47;47.52
62055;BME280;48653;51.742;-1.256;2024-01-15T04:15:28;100317.92;;;2.49;46.02
62055;BME280;48653;51.742;-1.256;2024-01-15T04:17:53;100312.81;;;2.31;46.21
62055;BME280;48653;51.742;-1.256;2024-01-15T04:20:18;100312.28;;;2.85;45.62
62055;BME280;48653;51.742;-1.256;2024-01-15T04:22:44;100311.79;;;2.38;46.10
62055;BME280;48653;51.742;-1.256;2024-01-15T04:25:10;100308.88;;;1.93;46.72
62055;BME280;48653;51.742;-1.256;2024-01-15T04:27:34;100310.87;;;1.72;46.67
62055;BME280;48653;51.742;-1.256;2024-01-15T04:30:01;100310.45;;;1.94;46.81
62055;BME280;48653;51.742;-1.256;2024-01-15T04:32:24;100314.04;;;1.93;46.23
62055;BME280;48653;51.742;-1.256;2024-01-15T04:34:49;100311.40;;;2.00;46.47
62055;BME280;48653;51.742;-1.256;2024-01-15T04:37:15;100319.16;;;1.37;47.45
62055;BME280;48653;51.742;-1.256;2024-01-15T04:39:40;100317.11;;;1.40;47.61
62055;BME280;48653;51.742;-1.256;2024-01-15T04:42:05;100314.85;;;1.63;47.10
62055;BME280;48653;51.742;-1.256;2024-01-15T04:44:30;100317.42;;;1.36;47.57
62055;BME280;48653;51.742;-1.256;2024-01-15T04:46:55;100316.99;;;1.68;47.64
62055;BME280;48653;51.742;-1.256;2024-01-15T04:49:22;100318.34;;;1.74;47.71
62055;BME280;48653;51.742;-1.256;2024-01-15T04:51:46;100321.01;;;2.18;46.79
62055;BME280;48653;51.742;-1.256;2024-01-15T04:54:11;100331.42;;;1.25;48.63
62055;BME280;48653;51.742;-1.256;2024-01-15T04:56:36;100337.04;;;0.82;50.29
62055;BME280;48653;51.742;-1.256;2024-01-15T04:59:02;100341.27;;;-0.07;52.26
62055;BME280;48653;51.742;-1.256;2024-01-15T05:01:31;100344.84;;;0.54;51.29
62055;BME280;48653;51.742;-1.256;2024-01-15T05:03:52;100332.85;;;0.68;50.63
62055;BME280;48653;51.742;-1.256;2024-01-15T05:06:17;100335.96;;;0.47;51.41
62055;BME280;48653;51.742;-1.256;2024-01-15T05:08:42;100334.13;;;0.37;51.65
62055;BME280;48653;51.742;-1.256;2024-01-15T05:11:07;100323.79;;;0.80;50.51
62055;BME280;48653;51.742;-1.256;2024-01-15T05:13:33;100329.65;;;0.61;51.37
62055;BME280;48653;51.742;-1.256;2024-01-15T05:15:58;100335.94;;;0.27;52.13
62055;BME280;48653;51.742;-1.256;2024-01-15T05:18:23;100338.03;;;0.47;51.69
62055;BME280;48653;51.742;-1.256;2024-01-15T05:20:48;100332.56;;;1.05;50.64
62055;BME280;48653;51.742;-1.256;2024-01-15T05:23:13;100334.02;;;1.14;50.35
62055;BME280;48653;51.742;-1.256;2024-01-15T05:25:40;100341.00;;;0.11;52.34
62055;BME280;48653;51.742;-1.256;2024-01-15T05:28:05;100339.55;;;0.11;52.30
62055;BME280;48653;51.742;-1.256;2024-01-15T05:30:29;100333.23;;;0.51;51.25
62055;BME280;48653;51.742;-1.256;2024-01-15T05:32:54;100337.30;;;0.43;51.36
62055;BME280;48653;51.742;-1.256;2024-01-15T05:35:19;100331.26;;;1.03;50.15
62055;BME280;48653;51.742;-1.256;2024-01-15T05:37:45;100329.10;;;0.87;50.14
62055;BME280;48653;51.742;-1.256;2024-01-15T05:40:11;100332.00;;;0.07;51.68
62055;BME280;48653;51.742;-1.256;2024-01-15T05:42:35;100333.64;;;0.19;51.46
62055;BME280;48653;51.742;-1.256;2024-01-15T05:45:00;100327.79;;;-0.10;52.01
62055;BME280;48653;51.742;-1.256;2024-01-15T05:47:26;100326.98;;;0.41;51.30
62055;BME280;48653;51.742;-1.256;2024-01-15T05:49:52;100322.53;;;-0.38;52.53
62055;BME280;48653;51.742;-1.256;2024-01-15T05:52:16;100331.57;;;0.53;51.32
62055;BME280;48653;51.742;-1.256;2024-01-15T05:54:43;100332.72;;;0.41;51.04
62055;BME280;48653;51.742;-1.256;2024-01-15T05:57:06;100337.47;;;0.15;50.80
62055;BME280;48653;51.742;-1.256;2024-01-15T05:59:32;100342.46;;;-0.65;53.43
62055;BME280;48653;51.742;-1.256;2024-01-15T06:01:58;100340.19;;;0.03;52.34
62055;BME280;48653;51.742;-1.256;2024-01-15T06:04:24;100344.27;;;0.55;51.28
62055;BME280;48653;51.742;-1.256;2024-01-15T06:06:54;100342.42;;;1.02;50.18
62055;BME280;48653;51.742;-1.256;2024-01-15T06:09:15;100339.12;;;1.17;49.63
62055;BME280;48653;51.742;-1.256;2024-01-15T06:14:05;100347.23;;;0.39;50.99
62055;BME280;48653;51.742;-1.256;2024-01-15T06:23:47;100350.34;;;0.72;49.75
62055;BME280;48653;51.742;-1.256;2024-01-15T06:28:39;100354.34;;;0.36;50.15
62055;BME280;48653;51.742;-1.256;2024-01-15T06:31:02;100345.85;;;0.67;49.73
62055;BME280;48653;51.742;-1.256;2024-01-15T06:33:28;100339.24;;;0.66;49.48
62055;BME280;48653;51.742;-1.256;2024-01-15T06:35:53;100338.20;;;0.87;49.14
62055;BME280;48653;51.742;-1.256;2024-01-15T06:38:38;100339.31;;;0.41;49.37
62055;BME280;48653;51.742;-1.256;2024-01-15T06:40:43;100338.06;;;0.82;48.51
62055;BME280;48653;51.742;-1.256;2024-01-15T06:43:15;100341.40;;;1.19;47.41
62055;BME280;48653;51.742;-1.256;2024-01-15T06:57:41;100340.76;;;1.25;46.48
62055;BME280;48653;51.742;-1.256;2024-01-15T07:00:09;100341.88;;;0.45;46.51
62055;BME280;48653;51.742;-1.256;2024-01-15T07:02:36;100342.76;;;1.02;46.24
62055;BME280;48653;51.742;-1.256;2024-01-15T07:07:21;100345.39;;;0.77;46.32
62055;BME280;48653;51.742;-1.256;2024-01-15T07:14:37;100356.88;;;0.34;47.05
62055;BME280;48653;51.742;-1.256;2024-01-15T07:17:03;100356.60;;;0.99;46.24
62055;BME280;48653;51.742;-1.256;2024-01-15T07:21:59;100365.23;;;0.90;46.51
62055;BME280;48653;51.742;-1.256;2024-01-15T07:24:19;100371.39;;;0.32;48.40
62055;BME280;48653;51.742;-1.256;2024-01-15T07:26:46;100368.86;;;0.56;48.05
62055;BME280;48653;51.742;-1.256;2024-01-15T07:29:10;100369.51;;;0.91;47.12
62055;BME280;48653;51.742;-1.256;2024-01-15T07:31:35;100372.31;;;0.83;46.91
62055;BME280;48653;51.742;-1.256;2024-01-15T07:36:25;100372.12;;;0.38;47.02
62055;BME280;48653;51.742;-1.256;2024-01-15T07:38:51;100372.15;;;0.40;46.70
62055;BME280;48653;51.742;-1.256;2024-01-15T07:41:16;100370.76;;;0.62;47.19
62055;BME280;48653;51.742;-1.256;2024-01-15T07:43:43;100365.54;;;0.67;46.67
62055;BME280;48653;51.742;-1.256;2024-01-15T07:50:59;100366.42;;;0.38;47.28
62055;BME280;48653;51.742;-1.256;2024-01-15T07:55:50;100375.18;;;0.14;47.80
62055;BME280;48653;51.742;-1.256;2024-01-15T07:58:15;100386.28;;;0.25;48.21
62055;BME280;48653;51.742;-1.256;2024-01-15T08:00:41;100395.11;;;0.49;47.26
62055;BME280;48653;51.742;-1.256;2024-01-15T08:03:05;100403.75;;;-0.08;49.39
62055;BME280;48653;51.742;-1.256;2024-01-15T08:05:30;100407.33;;;-0.36;49.70
62055;BME280;48653;51.742;-1.256;2024-01-15T08:22:28;100416.26;;;-0.38;51.79
62055;BME280;48653;51.742;-1.256;2024-01-15T08:39:24;100422.16;;;0.29;50.09
62055;BME280;48653;51.742;-1.256;2024-01-15T08:41:49;100429.12;;;0.30;49.89
62055;BME280;48653;51.742;-1.256;2024-01-15T08:44:15;100433.05;;;1.03;48.95
62055;BME280;48653;51.742;-1.256;2024-01-15T08:46:40;100437.68;;;0.65;49.47
62055;BME280;48653;51.742;-1.256;2024-01-15T08:49:06;100444.98;;;0.75;48.97
62055;BME280;48653;51.742;-1.256;2024-01-15T08:51:31;100449.92;;;0.89;48.69
62055;BME280;48653;51.742;-1.256;2024-01-15T08:53:57;100455.57;;;0.94;48.64
62055;BME280;48653;51.742;-1.256;2024-01-15T08:56:22;100457.65;;;0.90;47.53
62055;BME280;48653;51.742;-1.256;2024-01-15T08:58:47;100464.00;;;1.07;47.43
62055;BME280;48653;51.742;-1.256;2024-01-15T09:01:12;100469.20;;;1.44;46.60
62055;BME280;48653;51.742;-1.256;2024-01-15T09:06:03;100479.74;;;0.42;48.37
62055;BME280;48653;51.742;-1.256;2024-01-15T09:08:28;100481.81;;;0.61;47.97
62055;BME280;48653;51.742;-1.256;2024-01-15T09:10:53;100478.82;;;0.25;47.75
62055;BME280;48653;51.742;-1.256;2024-01-15T09:13:18;100481.69;;;0.75;47.47
62055;BME280;48653;51.742;-1.256;2024-01-15T09:15:43;100484.45;;;0.87;47.14
62055;BME280;48653;51.742;-1.256;2024-01-15T09:18:08;100483.81;;;0.94;47.18
62055;BME280;48653;51.742;-1.256;2024-01-15T09:20:35;100480.92;;;0.54;47.55
62055;BME280;48653;51.742;-1.256;2024-01-15T09:22:59;100482.69;;;1.44;46.87
62055;BME280;48653;51.742;-1.256;2024-01-15T09:27:49;100488.11;;;1.32;45.83
62055;BME280;48653;51.742;-1.256;2024-01-15T09:30:15;100480.53;;;1.91;45.28
62055;BME280;48653;51.742;-1.256;2024-01-15T09:32:39;100483.46;;;2.11;45.39
62055;BME280;48653;51.742;-1.256;2024-01-15T09:35:07;100486.97;;;2.57;44.28
62055;BME280;48653;51.742;-1.256;2024-01-15T09:37:30;100488.34;;;3.17;43.60
62055;BME280;48653;51.742;-1.256;2024-01-15T09:39:55;100494.90;;;2.63;44.04
62055;BME280;48653;51.742;-1.256;2024-01-15T09:42:20;100498.13;;;3.05;43.90
62055;BME280;48653;51.742;-1.256;2024-01-15T09:47:12;100500.92;;;4.41;41.52
62055;BME280;48653;51.742;-1.256;2024-01-15T09:49:36;100505.07;;;3.75;41.05
62055;BME280;48653;51.742;-1.256;2024-01-15T09:52:02;100504.96;;;4.48;41.25
62055;BME280;48653;51.742;-1.256;2024-01-15T09:54:29;100503.93;;;5.27;40.17
62055;BME280;48653;51.742;-1.256;2024-01-15T09:56:52;100513.43;;;4.97;39.83
62055;BME280;48653;51.742;-1.256;2024-01-15T09:59:18;100521.04;;;4.11;40.52
62055;BME280;48653;51.742;-1.256;2024-01-15T10:01:43;100520.16;;;3.83;40.91
62055;BME280;48653;51.742;-1.256;2024-01-15T10:04:08;100521.00;;;3.04;43.28
62055;BME280;48653;51.742;-1.256;2024-01-15T10:06:34;100519.20;;;2.36;43.91
62055;BME280;48653;51.742;-1.256;2024-01-15T10:08:59;100520.59;;;1.86;44.81
62055;BME280;48653;51.742;-1.256;2024-01-15T10:13:49;100515.35;;;2.18;44.10
62055;BME280;48653;51.742;-1.256;2024-01-15T10:16:13;100519.95;;;0.96;46.07
62055;BME280;48653;51.742;-1.256;2024-01-15T10:18:39;100518.97;;;1.18;46.69
62055;BME280;48653;51.742;-1.256;2024-01-15T10:21:06;100517.69;;;0.82;46.84
62055;BME280;48653;51.742;-1.256;2024-01-15T10:23:32;100524.24;;;0.54;46.01
62055;BME280;48653;51.742;-1.256;2024-01-15T10:25:56;100516.84;;;1.49;44.91
62055;BME280;48653;51.742;-1.256;2024-01-15T10:28:21;100518.18;;;0.14;46.45
62055;BME280;48653;51.742;-1.256;2024-01-15T10:30:46;100516.32;;;-0.43;46.30
62055;BME280;48653;51.742;-1.256;2024-01-15T10:33:11;100518.72;;;-0.37;45.85
62055;BME280;48653;51.742;-1.256;2024-01-15T10:35:38;100521.10;;;0.65;44.49
62055;BME280;48653;51.742;-1.256;2024-01-15T10:38:02;100534.68;;;0.30;44.75
62055;BME280;48653;51.742;-1.256;2024-01-15T10:40:27;100535.66;;;-0.24;45.01
62055;BME280;48653;51.742;-1.256;2024-01-15T10:42:52;100530.49;;;0.01;45.40
62055;BME280;48653;51.742;-1.256;2024-01-15T10:45:18;100529.96;;;0.19;43.83
62055;BME280;48653;51.742;-1.256;2024-01-15T10:47:43;100537.09;;;-0.48;44.78
62055;BME280;48653;51.742;-1.256;2024-01-15T10:50:09;100531.13;;;0.34;44.02
62055;BME280;48653;51.742;-1.256;2024-01-15T10:52:34;100523.21;;;1.10;43.06
62055;BME280;48653;51.742;-1.256;2024-01-15T10:54:59;100519.71;;;2.50;39.76
62055;BME280;48653;51.742;-1.256;2024-01-15T10:57:24;100526.76;;;1.77;40.25
62055;BME280;48653;51.742;-1.256;2024-01-15T11:02:14;100525.76;;;2.78;39.68
62055;BME280;48653;51.742;-1.256;2024-01-15T11:04:39;100532.42;;;1.96;38.84
62055;BME280;48653;51.742;-1.256;2024-01-15T11:07:05;100539.55;;;2.50;38.09
62055;BME280;48653;51.742;-1.256;2024-01-15T11:09:29;100540.83;;;1.47;40.13
62055;BME280;48653;51.742;-1.256;2024-01-15T11:12:08;100541.15;;;2.17;39.17
62055;BME280;48653;51.742;-1.256;2024-01-15T11:14:34;100550.25;;;3.61;37.53
62055;BME280;48653;51.742;-1.256;2024-01-15T11:16:55;100551.87;;;3.16;37.93
62055;BME280;48653;51.742;-1.256;2024-01-15T11:19:13;100549.88;;;3.63;37.92
62055;BME280;48653;51.742;-1.256;2024-01-15T11:24:01;100539.35;;;3.83;36.77
62055;BME280;48653;51.742;-1.256;2024-01-15T11:26:30;100541.18;;;4.39;36.09
62055;BME280;48653;51.742;-1.256;2024-01-15T11:28:51;100540.34;;;2.35;37.81
62055;BME280;48653;51.742;-1.256;2024-01-15T11:31:15;100550.06;;;1.82;38.83
62055;BME280;48653;51.742;-1.256;2024-01-15T11:33:48;100549.93;;;1.23;39.85
62055;BME280;48653;51.742;-1.256;2024-01-15T11:36:07;100557.99;;;0.73;40.91
62055;BME280;48653;51.742;-1.256;2024-01-15T11:38:32;100554.27;;;0.47;41.09
62055;BME280;48653;51.742;-1.256;2024-01-15T11:40:59;100552.30;;;3.01;38.05
62055;BME280;48653;51.742;-1.256;2024-01-15T11:43:22;100556.21;;;4.33;36.36
62055;BME280;48653;51.742;-1.256;2024-01-15T11:45:51;100561.16;;;3.61;36.49
62055;BME280;48653;51.742;-1.256;2024-01-15T11:48:13;100558.59;;;3.29;36.78
62055;BME280;48653;51.742;-1.256;2024-01-15T11:50:40;100563.21;;;4.98;34.85
62055;BME280;48653;51.742;-1.256;2024-01-15T11:53:03;100565.19;;;2.97;36.45
62055;BME280;48653;51.742;-1.256;2024-01-15T11:55:31;100563.18;;;4.66;35.30
62055;BME280;48653;51.742;-1.256;2024-01-15T11:57:54;100566.05;;;3.87;35.83
62055;BME280;48653;51.742;-1.256;2024-01-15T12:00:18;100570.46;;;2.98;36.31
62055;BME280;48653;51.742;-1.256;2024-01-15T12:02:44;100563.84;;;3.29;36.41
62055;BME280;48653;51.742;-1.256;2024-01-15T12:05:09;100559.15;;;3.70;35.24
62055;BME280;48653;51.742;-1.256;2024-01-15T12:09:58;100562.37;;;3.74;35.13
62055;BME280;48653;51.742;-1.256;2024-01-15T12:12:27;100570.29;;;3.83;33.52
62055;BME280;48653;51.742;-1.256;2024-01-15T12:14:49;100566.69;;;4.37;32.95
62055;BME280;48653;51.742;-1.256;2024-01-15T12:17:14;100566.79;;;6.07;30.84
62055;BME280;48653;51.742;-1.256;2024-01-15T12:19:39;100575.90;;;5.56;30.30
62055;BME280;48653;51.742;-1.256;2024-01-15T12:22:04;100575.88;;;4.49;32.25
62055;BME280;48653;51.742;-1.256;2024-01-15T12:24:30;100570.34;;;4.88;32.12
62055;BME280;48653;51.742;-1.256;2024-01-15T12:29:20;100560.59;;;6.07;30.73
62055;BME280;48653;51.742;-1.256;2024-01-15T12:31:47;100561.95;;;5.90;31.02
62055;BME280;48653;51.742;-1.256;2024-01-15T12:34:11;100564.20;;;5.25;29.69
62055;BME280;48653;51.742;-1.256;2024-01-15T12:36:35;100571.55;;;3.86;31.04
62055;BME280;48653;51.742;-1.256;2024-01-15T12:39:01;100577.94;;;4.18;31.26
62055;BME280;48653;51.742;-1.256;2024-01-15T12:41:26;100577.97;;;4.02;30.49
62055;BME280;48653;51.742;-1.256;2024-01-15T12:43:51;100569.70;;;5.57;30.03
62055;BME280;48653;51.742;-1.256;2024-01-15T12:51:08;100572.98;;;4.51;31.80
62055;BME280;48653;51.742;-1.256;2024-01-15T12:53:32;100565.89;;;3.90;32.10
62055;BME280;48653;51.742;-1.256;2024-01-15T12:55:57;100566.69;;;3.52;33.51
62055;BME280;48653;51.742;-1.256;2024-01-15T13:00:47;100551.39;;;4.79;32.29
62055;BME280;48653;51.742;-1.256;2024-01-15T13:05:38;100548.14;;;4.47;31.68
62055;BME280;48653;51.742;-1.256;2024-01-15T13:08:03;100553.13;;;3.93;31.17
62055;BME280;48653;51.742;-1.256;2024-01-15T13:10:28;100555.86;;;2.95;32.41
62055;BME280;48653;51.742;-1.256;2024-01-15T13:12:53;100555.40;;;3.05;33.11
62055;BME280;48653;51.742;-1.256;2024-01-15T13:15:18;100549.75;;;4.24;31.41
62055;BME280;48653;51.742;-1.256;2024-01-15T13:17:45;100541.37;;;3.72;31.92
62055;BME280;48653;51.742;-1.256;2024-01-15T13:20:09;100538.87;;;4.85;31.51
62055;BME280;48653;51.742;-1.256;2024-01-15T13:22:34;100542.22;;;3.67;30.95
62055;BME280;48653;51.742;-1.256;2024-01-15T13:24:59;100540.44;;;3.16;31.87
62055;BME280;48653;51.742;-1.256;2024-01-15T13:27:24;100546.69;;;4.05;31.72
62055;BME280;48653;51.742;-1.256;2024-01-15T13:29:49;100545.82;;;4.56;31.70
62055;BME280;48653;51.742;-1.256;2024-01-15T13:32:19;100541.52;;;4.08;31.43
62055;BME280;48653;51.742;-1.256;2024-01-15T13:34:39;100540.08;;;2.90;32.04
62055;BME280;48653;51.742;-1.256;2024-01-15T13:37:05;100544.33;;;3.21;31.89
62055;BME280;48653;51.742;-1.256;2024-01-15T13:44:31;100542.27;;;4.11;31.16
62055;BME280;48653;51.742;-1.256;2024-01-15T13:46:45;100543.11;;;3.32;31.52
62055;BME280;48653;51.742;-1.256;2024-01-15T13:51:40;100538.50;;;1.64;33.07
62055;BME280;48653;51.742;-1.256;2024-01-15T13:56:31;100532.94;;;2.31;32.58
62055;BME280;48653;51.742;-1.256;2024-01-15T14:01:17;100528.94;;;1.50;32.61
62055;BME280;48653;51.742;-1.256;2024-01-15T14:03:42;100523.04;;;1.69;32.63
62055;BME280;48653;51.742;-1.256;2024-01-15T14:13:23;100517.87;;;1.13;33.21
62055;BME280;48653;51.742;-1.256;2024-01-15T14:18:13;100522.60;;;1.57;32.69
62055;BME280;48653;51.742;-1.256;2024-01-15T14:20:38;100523.59;;;1.20;32.72
62055;BME280;48653;51.742;-1.256;2024-01-15T14:23:03;100525.10;;;0.56;33.87
62055;BME280;48653;51.742;-1.256;2024-01-15T14:25:28;100521.10;;;1.59;32.77
62055;BME280;48653;51.742;-1.256;2024-01-15T14:27:53;100517.91;;;1.52;32.81
62055;BME280;48653;51.742;-1.256;2024-01-15T14:30:19;100520.69;;;1.93;32.38
62055;BME280;48653;51.742;-1.256;2024-01-15T14:32:44;100519.81;;;2.73;32.21
62055;BME280;48653;51.742;-1.256;2024-01-15T14:35:10;100522.36;;;2.67;31.67
62055;BME280;48653;51.742;-1.256;2024-01-15T14:52:07;100525.94;;;2.58;30.83
62055;BME280;48653;51.742;-1.256;2024-01-15T14:54:32;100522.93;;;2.77;30.64
62055;BME280;48653;51.742;-1.256;2024-01-15T14:59:22;100532.73;;;1.93;30.12
62055;BME280;48653;51.742;-1.256;2024-01-15T15:01:48;100533.82;;;2.13;30.50
62055;BME280;48653;51.742;-1.256;2024-01-15T15:06:39;100544.82;;;0.86;31.88
62055;BME280;48653;51.742;-1.256;2024-01-15T15:11:29;100549.32;;;1.11;31.58